Terminal Aerodrome Forecast
Issued by NWS

Home | Current Version | Previous Version | Text Only | Print | Product List | Glossary On
Versions: 1 2 3 4 5 6 7 8 9 10 11 12 13 14 15 16 17 18 19 20 21 22 23 24 25 26 27 28
000
FTUS44 KOUN 311513 AAA
TAFLAW
TAF AMD
KLAW 311513Z 3115/0112 13010KT 6SM -RA SCT015 OVC035
     FM311800 16011KT 4SM -RA BR OVC020
     FM010000 15009KT 2SM -RA BR OVC005=

USA.gov is the U.S. government's official web portal to all federal, state and local government web resources and services.